sensor_id;sensor_type;location;lat;lon;timestamp;pressure;altitude;pressure_sealevel;temperature;humidity
8059;BME280;75058;42.668;23.396;2024-02-16T00:02:03;95733.56;;;2.75;62.08
8059;BME280;75058;42.668;23.396;2024-02-16T00:04:31;95736.59;;;2.63;61.40
8059;BME280;75058;42.668;23.396;2024-02-16T00:06:59;95751.13;;;2.72;61.83
8059;BME280;75058;42.668;23.396;2024-02-16T00:09:27;95736.25;;;2.66;61.21
8059;BME280;75058;42.668;23.396;2024-02-16T00:11:55;95741.25;;;2.59;61.71
8059;BME280;75058;42.668;23.396;2024-02-16T00:14:23;95732.38;;;2.62;62.23
8059;BME280;75058;42.668;23.396;2024-02-16T00:16:51;95735.31;;;2.59;61.59
8059;BME280;75058;42.668;23.396;2024-02-16T00:19:20;95741.13;;;2.69;62.78
8059;BME280;75058;42.668;23.396;2024-02-16T00:21:48;95737.19;;;2.41;62.37
8059;BME280;75058;42.668;23.396;2024-02-16T00:24:17;95753.63;;;2.40;62.89
8059;BME280;75058;42.668;23.396;2024-02-16T00:26:45;95749.81;;;2.52;61.43
8059;BME280;75058;42.668;23.396;2024-02-16T00:29:13;95741.59;;;2.56;62.83
8059;BME280;75058;42.668;23.396;2024-02-16T00:31:41;95747.97;;;2.36;62.65
8059;BME280;75058;42.668;23.396;2024-02-16T00:34:09;95747.03;;;2.45;61.75
8059;BME280;75058;42.668;23.396;2024-02-16T00:36:39;95745.09;;;2.39;61.54
8059;BME280;75058;42.668;23.396;2024-02-16T00:39:06;95749.09;;;2.33;62.14
8059;BME280;75058;42.668;23.396;2024-02-16T00:41:35;95737.16;;;2.32;61.67
8059;BME280;75058;42.668;23.396;2024-02-16T00:44:03;95740.88;;;2.38;60.79
8059;BME280;75058;42.668;23.396;2024-02-16T00:46:31;95742.81;;;2.36;61.03
8059;BME280;75058;42.668;23.396;2024-02-16T00:48:59;95752.91;;;2.13;61.71
8059;BME280;75058;42.668;23.396;2024-02-16T00:51:27;95726.16;;;1.89;61.52
8059;BME280;75058;42.668;23.396;2024-02-16T00:53:57;95752.63;;;2.24;60.91
8059;BME280;75058;42.668;23.396;2024-02-16T00:56:25;95754.38;;;2.24;61.05
8059;BME280;75058;42.668;23.396;2024-02-16T00:58:53;95758.56;;;2.17;61.00
8059;BME280;75058;42.668;23.396;2024-02-16T01:01:21;95755.03;;;2.18;61.57
8059;BME280;75058;42.668;23.396;2024-02-16T01:03:51;95749.66;;;2.11;61.71
8059;BME280;75058;42.668;23.396;2024-02-16T01:06:19;95742.53;;;2.05;61.13
8059;BME280;75058;42.668;23.396;2024-02-16T01:08:47;95750.72;;;2.34;61.80
8059;BME280;75058;42.668;23.396;2024-02-16T01:11:17;95748.88;;;2.61;61.93
8059;BME280;75058;42.668;23.396;2024-02-16T01:13:46;95739.38;;;2.27;61.44
8059;BME280;75058;42.668;23.396;2024-02-16T01:16:15;95743.28;;;2.31;61.52
8059;BME280;75058;42.668;23.396;2024-02-16T01:18:44;95745.72;;;1.99;61.95
8059;BME280;75058;42.668;23.396;2024-02-16T01:21:12;95755.59;;;2.04;62.07
8059;BME280;75058;42.668;23.396;2024-02-16T01:23:40;95740.75;;;2.06;61.91
8059;BME280;75058;42.668;23.396;2024-02-16T01:26:08;95741.78;;;2.21;62.48
8059;BME280;75058;42.668;23.396;2024-02-16T01:28:37;95740.69;;;2.31;62.20
8059;BME280;75058;42.668;23.396;2024-02-16T01:31:05;95737.44;;;2.21;61.95
8059;BME280;75058;42.668;23.396;2024-02-16T01:33:37;95744.75;;;1.92;62.65
8059;BME280;75058;42.668;23.396;2024-02-16T01:36:06;95740.75;;;1.46;63.52
8059;BME280;75058;42.668;23.396;2024-02-16T01:38:34;95735.75;;;1.19;64.73
8059;BME280;75058;42.668;23.396;2024-02-16T01:41:02;95735.75;;;1.19;64.43
8059;BME280;75058;42.668;23.396;2024-02-16T01:43:31;95734.81;;;1.28;65.28
8059;BME280;75058;42.668;23.396;2024-02-16T01:46:00;95732.56;;;1.25;64.46
8059;BME280;75058;42.668;23.396;2024-02-16T01:48:29;95734.78;;;1.03;64.33
8059;BME280;75058;42.668;23.396;2024-02-16T01:50:59;95718.94;;;0.90;65.10
8059;BME280;75058;42.668;23.396;2024-02-16T01:53:29;95729.63;;;1.03;65.33
8059;BME280;75058;42.668;23.396;2024-02-16T01:55:57;95722.50;;;0.97;65.57
8059;BME280;75058;42.668;23.396;2024-02-16T01:58:25;95723.09;;;0.91;65.10
8059;BME280;75058;42.668;23.396;2024-02-16T02:00:54;95731.81;;;0.90;64.71
8059;BME280;75058;42.668;23.396;2024-02-16T02:03:24;95728.09;;;1.10;64.97
8059;BME280;75058;42.668;23.396;2024-02-16T02:05:52;95723.28;;;1.32;63.69
8059;BME280;75058;42.668;23.396;2024-02-16T02:08:21;95728.47;;;1.40;64.86
8059;BME280;75058;42.668;23.396;2024-02-16T02:10:49;95724.38;;;1.30;64.24
8059;BME280;75058;42.668;23.396;2024-02-16T02:13:17;95728.13;;;1.35;63.83
8059;BME280;75058;42.668;23.396;2024-02-16T02:15:46;95719.25;;;1.89;63.61
8059;BME280;75058;42.668;23.396;2024-02-16T02:18:14;95721.06;;;1.71;62.62
8059;BME280;75058;42.668;23.396;2024-02-16T02:20:43;95720.09;;;1.64;63.66
8059;BME280;75058;42.668;23.396;2024-02-16T02:23:13;95595.03;;;0.32;63.12
8059;BME280;75058;42.668;23.396;2024-02-16T02:25:41;95729.38;;;1.31;64.44
8059;BME280;75058;42.668;23.396;2024-02-16T02:28:09;95725.00;;;1.49;63.59
8059;BME280;75058;42.668;23.396;2024-02-16T02:30:36;95733.78;;;1.39;63.96
8059;BME280;75058;42.668;23.396;2024-02-16T02:33:05;95723.13;;;1.34;63.03
8059;BME280;75058;42.668;23.396;2024-02-16T02:35:33;95729.72;;;1.11;65.17
8059;BME280;75058;42.668;23.396;2024-02-16T02:38:01;95741.09;;;1.26;64.44
8059;BME280;75058;42.668;23.396;2024-02-16T02:40:31;95730.22;;;0.97;64.68
8059;BME280;75058;42.668;23.396;2024-02-16T02:42:59;95728.31;;;0.99;64.64
8059;BME280;75058;42.668;23.396;2024-02-16T02:45:27;95732.13;;;1.12;64.30
8059;BME280;75058;42.668;23.396;2024-02-16T02:47:55;95733.34;;;1.00;64.90
8059;BME280;75058;42.668;23.396;2024-02-16T02:50:23;95728.09;;;1.10;64.32
8059;BME280;75058;42.668;23.396;2024-02-16T02:52:51;95732.53;;;1.00;64.61
8059;BME280;75058;42.668;23.396;2024-02-16T02:55:19;95727.59;;;1.06;65.28
8059;BME280;75058;42.668;23.396;2024-02-16T02:57:48;95728.03;;;1.02;65.07
8059;BME280;75058;42.668;23.396;2024-02-16T03:00:17;95728.78;;;0.76;65.26
8059;BME280;75058;42.668;23.396;2024-02-16T03:02:45;95719.28;;;0.77;64.69
8059;BME280;75058;42.668;23.396;2024-02-16T03:05:15;95726.84;;;0.61;64.94
8059;BME280;75058;42.668;23.396;2024-02-16T03:07:43;95729.28;;;0.98;65.59
8059;BME280;75058;42.668;23.396;2024-02-16T03:10:11;95728.63;;;0.96;64.05
8059;BME280;75058;42.668;23.396;2024-02-16T03:12:41;95727.75;;;0.69;65.93
8059;BME280;75058;42.668;23.396;2024-02-16T03:15:12;95730.97;;;1.07;65.09
8059;BME280;75058;42.668;23.396;2024-02-16T03:17:40;95726.00;;;0.88;65.21
8059;BME280;75058;42.668;23.396;2024-02-16T03:20:09;95730.47;;;1.29;66.39
8059;BME280;75058;42.668;23.396;2024-02-16T03:22:37;95729.16;;;1.25;64.80
8059;BME280;75058;42.668;23.396;2024-02-16T03:25:05;95727.19;;;1.19;65.43
8059;BME280;75058;42.668;23.396;2024-02-16T03:27:33;95722.78;;;1.11;64.72
8059;BME280;75058;42.668;23.396;2024-02-16T03:30:01;95728.66;;;1.21;65.32
8059;BME280;75058;42.668;23.396;2024-02-16T03:32:31;95731.16;;;0.88;64.55
8059;BME280;75058;42.668;23.396;2024-02-16T03:34:59;95731.78;;;0.72;65.33
8059;BME280;75058;42.668;23.396;2024-02-16T03:37:27;95721.63;;;1.06;64.98
8059;BME280;75058;42.668;23.396;2024-02-16T03:39:55;95730.22;;;0.97;65.16
8059;BME280;75058;42.668;23.396;2024-02-16T03:42:24;95730.00;;;1.51;65.62
8059;BME280;75058;42.668;23.396;2024-02-16T03:44:51;95733.25;;;1.10;63.95
8059;BME280;75058;42.668;23.396;2024-02-16T03:47:20;95732.00;;;0.61;65.27
8059;BME280;75058;42.668;23.396;2024-02-16T03:49:49;95737.00;;;0.62;66.86
8059;BME280;75058;42.668;23.396;2024-02-16T03:52:17;95738.28;;;0.76;65.33
8059;BME280;75058;42.668;23.396;2024-02-16T03:54:45;95737.25;;;0.87;66.88
8059;BME280;75058;42.668;23.396;2024-02-16T03:57:15;95737.00;;;0.18;65.72
8059;BME280;75058;42.668;23.396;2024-02-16T03:59:43;95731.69;;;-0.26;67.49
8059;BME280;75058;42.668;23.396;2024-02-16T04:02:11;95739.16;;;-0.32;67.70
8059;BME280;75058;42.668;23.396;2024-02-16T04:04:40;95745.16;;;-0.14;68.61
8059;BME280;75058;42.668;23.396;2024-02-16T04:07:10;95746.88;;;-0.42;68.25
8059;BME280;75058;42.668;23.396;2024-02-16T04:09:38;95743.06;;;-0.38;68.03
8059;BME280;75058;42.668;23.396;2024-02-16T04:12:06;95738.34;;;-0.33;68.21
8059;BME280;75058;42.668;23.396;2024-02-16T04:14:34;95742.25;;;-0.29;68.29
8059;BME280;75058;42.668;23.396;2024-02-16T04:17:02;95735.38;;;-0.38;67.92
8059;BME280;75058;42.668;23.396;2024-02-16T04:19:30;95730.50;;;-0.04;67.90
8059;BME280;75058;42.668;23.396;2024-02-16T04:21:59;95735.25;;;-0.09;68.29
8059;BME280;75058;42.668;23.396;2024-02-16T04:24:29;95735.63;;;-0.04;68.17
8059;BME280;75058;42.668;23.396;2024-02-16T04:26:57;95562.28;;;-1.01;67.63
8059;BME280;75058;42.668;23.396;2024-02-16T04:29:25;95738.41;;;-0.15;67.31
8059;BME280;75058;42.668;23.396;2024-02-16T04:31:53;95736.19;;;-0.47;67.95
8059;BME280;75058;42.668;23.396;2024-02-16T04:34:21;95729.06;;;-0.53;69.04
8059;BME280;75058;42.668;23.396;2024-02-16T04:36:49;95741.13;;;-0.63;68.34
8059;BME280;75058;42.668;23.396;2024-02-16T04:39:17;95737.59;;;-0.62;68.47
8059;BME280;75058;42.668;23.396;2024-02-16T04:41:47;95740.03;;;-0.60;69.03
8059;BME280;75058;42.668;23.396;2024-02-16T04:44:15;95738.28;;;-0.69;69.20
8059;BME280;75058;42.668;23.396;2024-02-16T04:46:44;95741.66;;;-0.59;68.92
8059;BME280;75058;42.668;23.396;2024-02-16T04:49:12;95716.00;;;-0.79;68.69
8059;BME280;75058;42.668;23.396;2024-02-16T04:51:40;95746.31;;;-0.82;69.22
8059;BME280;75058;42.668;23.396;2024-02-16T04:54:08;95749.00;;;-0.93;69.99
8059;BME280;75058;42.668;23.396;2024-02-16T04:56:36;95754.97;;;-1.02;70.50
8059;BME280;75058;42.668;23.396;2024-02-16T04:59:05;95755.63;;;-0.91;69.43
8059;BME280;75058;42.668;23.396;2024-02-16T05:01:33;95752.28;;;-1.01;70.28
8059;BME280;75058;42.668;23.396;2024-02-16T05:04:01;95759.41;;;-1.04;70.46
8059;BME280;75058;42.668;23.396;2024-02-16T05:06:30;95758.34;;;-1.02;70.38
8059;BME280;75058;42.668;23.396;2024-02-16T05:08:58;95753.34;;;-1.03;69.80
8059;BME280;75058;42.668;23.396;2024-02-16T05:11:26;95761.59;;;-1.00;70.14
8059;BME280;75058;42.668;23.396;2024-02-16T05:13:57;95759.41;;;-0.85;70.11
8059;BME280;75058;42.668;23.396;2024-02-16T05:16:27;95761.72;;;-0.82;69.95
8059;BME280;75058;42.668;23.396;2024-02-16T05:18:55;95770.78;;;-0.97;70.06
8059;BME280;75058;42.668;23.396;2024-02-16T05:21:24;95771.59;;;-1.06;70.67
8059;BME280;75058;42.668;23.396;2024-02-16T05:23:52;95777.28;;;-1.03;71.07
8059;BME280;75058;42.668;23.396;2024-02-16T05:26:20;95778.75;;;-1.10;70.06
8059;BME280;75058;42.668;23.396;2024-02-16T05:28:48;95768.88;;;-0.86;70.82
8059;BME280;75058;42.668;23.396;2024-02-16T05:31:17;95779.41;;;-0.69;70.00
8059;BME280;75058;42.668;23.396;2024-02-16T05:33:48;95783.06;;;-0.82;70.02
8059;BME280;75058;42.668;23.396;2024-02-16T05:36:17;95788.72;;;-0.49;69.83
8059;BME280;75058;42.668;23.396;2024-02-16T05:38:47;95785.28;;;-0.31;69.44
8059;BME280;75058;42.668;23.396;2024-02-16T05:41:15;95785.28;;;-0.31;68.13
8059;BME280;75058;42.668;23.396;2024-02-16T05:43:44;95789.78;;;-0.61;68.80
8059;BME280;75058;42.668;23.396;2024-02-16T05:46:12;95792.22;;;-0.41;69.78
8059;BME280;75058;42.668;23.396;2024-02-16T05:48:41;95770.91;;;-0.24;68.25
8059;BME280;75058;42.668;23.396;2024-02-16T05:51:11;95786.69;;;-0.09;66.86
8059;BME280;75058;42.668;23.396;2024-02-16T05:53:40;95791.09;;;0.08;66.43
8059;BME280;75058;42.668;23.396;2024-02-16T05:56:08;95786.09;;;0.78;65.24
8059;BME280;75058;42.668;23.396;2024-02-16T05:58:37;95787.00;;;1.05;62.96
8059;BME280;75058;42.668;23.396;2024-02-16T06:01:05;95792.75;;;1.42;63.14
8059;BME280;75058;42.668;23.396;2024-02-16T06:03:33;95772.28;;;1.58;61.40
8059;BME280;75058;42.668;23.396;2024-02-16T06:06:01;95797.13;;;1.93;62.82
8059;BME280;75058;42.668;23.396;2024-02-16T06:08:30;95796.63;;;2.15;61.32
8059;BME280;75058;42.668;23.396;2024-02-16T06:10:58;95797.22;;;2.43;60.84
8059;BME280;75058;42.668;23.396;2024-02-16T06:13:28;95791.56;;;2.39;58.85
8059;BME280;75058;42.668;23.396;2024-02-16T06:15:56;95797.13;;;2.60;60.89
8059;BME280;75058;42.668;23.396;2024-02-16T06:18:25;95793.72;;;2.60;59.98
8059;BME280;75058;42.668;23.396;2024-02-16T06:20:56;95804.59;;;2.71;58.31
8059;BME280;75058;42.668;23.396;2024-02-16T06:23:24;95800.06;;;2.73;59.12
8059;BME280;75058;42.668;23.396;2024-02-16T06:25:53;95804.69;;;2.54;58.72
8059;BME280;75058;42.668;23.396;2024-02-16T06:28:21;95808.66;;;2.06;59.72
8059;BME280;75058;42.668;23.396;2024-02-16T06:30:49;95802.44;;;2.17;60.72
8059;BME280;75058;42.668;23.396;2024-02-16T06:33:17;95802.28;;;1.93;60.06
8059;BME280;75058;42.668;23.396;2024-02-16T06:35:46;95807.09;;;1.62;61.13
8059;BME280;75058;42.668;23.396;2024-02-16T06:38:17;95803.97;;;1.76;61.97
8059;BME280;75058;42.668;23.396;2024-02-16T06:40:45;95801.94;;;2.13;60.32
8059;BME280;75058;42.668;23.396;2024-02-16T06:43:14;95804.28;;;2.32;59.42
8059;BME280;75058;42.668;23.396;2024-02-16T06:45:42;95795.81;;;2.56;60.05
8059;BME280;75058;42.668;23.396;2024-02-16T06:48:10;95804.13;;;2.34;59.62
8059;BME280;75058;42.668;23.396;2024-02-16T06:50:38;95795.28;;;2.45;61.02
8059;BME280;75058;42.668;23.396;2024-02-16T06:53:07;95801.81;;;2.65;60.10
8059;BME280;75058;42.668;23.396;2024-02-16T06:55:35;95802.03;;;2.95;58.58
8059;BME280;75058;42.668;23.396;2024-02-16T06:58:03;95791.59;;;2.47;59.57
8059;BME280;75058;42.668;23.396;2024-02-16T07:00:32;95801.47;;;2.60;59.11
8059;BME280;75058;42.668;23.396;2024-02-16T07:03:02;95796.38;;;2.76;58.43
8059;BME280;75058;42.668;23.396;2024-02-16T07:05:30;95788.78;;;2.82;58.91
8059;BME280;75058;42.668;23.396;2024-02-16T07:08:03;95800.81;;;2.58;58.81
8059;BME280;75058;42.668;23.396;2024-02-16T07:10:33;95796.75;;;2.97;58.02
8059;BME280;75058;42.668;23.396;2024-02-16T07:13:01;95802.72;;;3.05;58.46
8059;BME280;75058;42.668;23.396;2024-02-16T07:15:30;95796.28;;;3.26;58.36
8059;BME280;75058;42.668;23.396;2024-02-16T07:18:00;95793.03;;;3.32;57.36
8059;BME280;75058;42.668;23.396;2024-02-16T07:20:31;95799.03;;;3.24;57.57
8059;BME280;75058;42.668;23.396;2024-02-16T07:22:59;95800.56;;;2.85;57.85
8059;BME280;75058;42.668;23.396;2024-02-16T07:25:27;95792.97;;;2.83;58.52
8059;BME280;75058;42.668;23.396;2024-02-16T07:27:55;95791.56;;;3.13;58.59
8059;BME280;75058;42.668;23.396;2024-02-16T07:30:23;95779.13;;;3.65;57.75
8059;BME280;75058;42.668;23.396;2024-02-16T07:33:04;95787.56;;;3.35;58.49
8059;BME280;75058;42.668;23.396;2024-02-16T07:35:34;95795.31;;;3.35;58.57
8059;BME280;75058;42.668;23.396;2024-02-16T07:38:02;95793.16;;;3.95;57.53
8059;BME280;75058;42.668;23.396;2024-02-16T07:40:31;95802.41;;;3.41;57.18
8059;BME280;75058;42.668;23.396;2024-02-16T07:42:59;95796.78;;;3.45;57.77
8059;BME280;75058;42.668;23.396;2024-02-16T07:45:27;95796.88;;;4.08;57.42
8059;BME280;75058;42.668;23.396;2024-02-16T07:47:55;95795.38;;;4.14;57.27
8059;BME280;75058;42.668;23.396;2024-02-16T07:50:25;95799.06;;;4.27;56.25
8059;BME280;75058;42.668;23.396;2024-02-16T07:52:53;95797.88;;;4.46;56.66
8059;BME280;75058;42.668;23.396;2024-02-16T07:55:21;95793.22;;;4.72;56.14
8059;BME280;75058;42.668;23.396;2024-02-16T07:57:51;95792.09;;;4.28;55.79
8059;BME280;75058;42.668;23.396;2024-02-16T08:00:19;95801.94;;;4.40;56.66
8059;BME280;75058;42.668;23.396;2024-02-16T08:02:47;95796.25;;;4.45;55.03
8059;BME280;75058;42.668;23.396;2024-02-16T08:05:15;95794.03;;;4.73;55.47
8059;BME280;75058;42.668;23.396;2024-02-16T08:07:47;95802.03;;;4.55;55.65
8059;BME280;75058;42.668;23.396;2024-02-16T08:10:18;95795.75;;;5.11;54.73
8059;BME280;75058;42.668;23.396;2024-02-16T08:12:47;95800.00;;;5.26;54.33
8059;BME280;75058;42.668;23.396;2024-02-16T08:15:15;95790.03;;;4.23;56.94
8059;BME280;75058;42.668;23.396;2024-02-16T08:17:50;95801.53;;;4.21;57.13
8059;BME280;75058;42.668;23.396;2024-02-16T08:20:19;95797.25;;;4.36;57.30
8059;BME280;75058;42.668;23.396;2024-02-16T08:22:49;95792.09;;;4.75;55.77
8059;BME280;75058;42.668;23.396;2024-02-16T08:25:17;95797.53;;;5.10;55.65
8059;BME280;75058;42.668;23.396;2024-02-16T08:27:45;95794.47;;;5.52;54.96
8059;BME280;75058;42.668;23.396;2024-02-16T08:30:13;95804.47;;;5.40;55.10
8059;BME280;75058;42.668;23.396;2024-02-16T08:32:41;95806.22;;;5.63;54.37
8059;BME280;75058;42.668;23.396;2024-02-16T08:35:09;95801.47;;;5.29;55.30
8059;BME280;75058;42.668;23.396;2024-02-16T08:37:40;95807.84;;;5.64;55.64
8059;BME280;75058;42.668;23.396;2024-02-16T08:40:12;95766.41;;;5.33;55.35
8059;BME280;75058;42.668;23.396;2024-02-16T08:42:41;95800.34;;;6.06;54.36
8059;BME280;75058;42.668;23.396;2024-02-16T08:45:09;95794.72;;;6.46;52.56
8059;BME280;75058;42.668;23.396;2024-02-16T08:47:39;95792.75;;;6.63;52.55
8059;BME280;75058;42.668;23.396;2024-02-16T08:50:08;95797.81;;;6.85;51.61
8059;BME280;75058;42.668;23.396;2024-02-16T08:52:37;95799.28;;;5.78;53.71
8059;BME280;75058;42.668;23.396;2024-02-16T08:55:05;95801.47;;;5.52;54.37
8059;BME280;75058;42.668;23.396;2024-02-16T08:57:35;95788.72;;;6.02;52.73
8059;BME280;75058;42.668;23.396;2024-02-16T09:00:05;95799.91;;;5.80;54.17
8059;BME280;75058;42.668;23.396;2024-02-16T09:02:34;95795.34;;;6.19;53.39
8059;BME280;75058;42.668;23.396;2024-02-16T09:05:03;95794.28;;;6.28;52.78
8059;BME280;75058;42.668;23.396;2024-02-16T09:07:31;95785.66;;;7.07;51.01
8059;BME280;75058;42.668;23.396;2024-02-16T09:09:59;95801.06;;;6.73;51.10
8059;BME280;75058;42.668;23.396;2024-02-16T09:12:27;95802.81;;;6.22;51.65
8059;BME280;75058;42.668;23.396;2024-02-16T09:14:56;95796.25;;;6.41;51.01
8059;BME280;75058;42.668;23.396;2024-02-16T09:17:24;95812.81;;;6.25;51.11
8059;BME280;75058;42.668;23.396;2024-02-16T09:19:53;95804.75;;;6.64;50.93
8059;BME280;75058;42.668;23.396;2024-02-16T09:22:21;95803.06;;;7.49;49.06
8059;BME280;75058;42.668;23.396;2024-02-16T09:25:04;95793.22;;;8.14;47.11
8059;BME280;75058;42.668;23.396;2024-02-16T09:27:32;95795.97;;;8.68;45.74
8059;BME280;75058;42.668;23.396;2024-02-16T09:30:01;95797.03;;;8.87;44.56
8059;BME280;75058;42.668;23.396;2024-02-16T09:32:30;95791.91;;;9.06;44.76
8059;BME280;75058;42.668;23.396;2024-02-16T09:34:58;95791.03;;;8.93;44.67
8059;BME280;75058;42.668;23.396;2024-02-16T09:37:26;95792.00;;;8.92;45.01
8059;BME280;75058;42.668;23.396;2024-02-16T09:39:54;95790.91;;;9.14;44.71
8059;BME280;75058;42.668;23.396;2024-02-16T09:42:23;95784.28;;;9.18;44.22
8059;BME280;75058;42.668;23.396;2024-02-16T09:44:54;95717.31;;;8.78;44.11
8059;BME280;75058;42.668;23.396;2024-02-16T09:47:24;95717.81;;;9.27;42.58
8059;BME280;75058;42.668;23.396;2024-02-16T09:49:55;95785.56;;;9.68;42.74
8059;BME280;75058;42.668;23.396;2024-02-16T09:52:24;95785.59;;;9.81;42.47
8059;BME280;75058;42.668;23.396;2024-02-16T09:54:52;95779.06;;;9.18;42.98
8059;BME280;75058;42.668;23.396;2024-02-16T09:57:20;95779.41;;;8.48;44.43
8059;BME280;75058;42.668;23.396;2024-02-16T09:59:48;95776.41;;;9.05;43.79
8059;BME280;75058;42.668;23.396;2024-02-16T10:02:15;95771.78;;;9.07;43.75
8059;BME280;75058;42.668;23.396;2024-02-16T10:04:45;95777.50;;;8.70;44.27
8059;BME280;75058;42.668;23.396;2024-02-16T10:07:13;95765.84;;;8.66;44.66
8059;BME280;75058;42.668;23.396;2024-02-16T10:09:41;95752.31;;;9.03;44.51
8059;BME280;75058;42.668;23.396;2024-02-16T10:12:09;95758.00;;;9.19;43.77
8059;BME280;75058;42.668;23.396;2024-02-16T10:14:38;95755.63;;;8.71;44.60
8059;BME280;75058;42.668;23.396;2024-02-16T10:17:08;95756.16;;;8.53;44.86
8059;BME280;75058;42.668;23.396;2024-02-16T10:19:36;95741.16;;;9.48;44.27
8059;BME280;75058;42.668;23.396;2024-02-16T10:22:10;95745.50;;;9.02;44.38
8059;BME280;75058;42.668;23.396;2024-02-16T10:24:40;95741.41;;;8.80;44.55
8059;BME280;75058;42.668;23.396;2024-02-16T10:27:14;95737.59;;;8.82;44.71
8059;BME280;75058;42.668;23.396;2024-02-16T10:29:44;95731.09;;;8.59;44.93
8059;BME280;75058;42.668;23.396;2024-02-16T10:32:12;95732.75;;;8.79;43.92
8059;BME280;75058;42.668;23.396;2024-02-16T10:34:41;95726.03;;;9.04;43.97
8059;BME280;75058;42.668;23.396;2024-02-16T10:37:12;95734.69;;;9.24;44.09
8059;BME280;75058;42.668;23.396;2024-02-16T10:39:42;95734.31;;;9.73;43.06
8059;BME280;75058;42.668;23.396;2024-02-16T10:42:11;95731.47;;;9.29;43.60
8059;BME280;75058;42.668;23.396;2024-02-16T10:44:40;95722.81;;;9.15;43.67
8059;BME280;75058;42.668;23.396;2024-02-16T10:47:09;95722.06;;;9.28;44.07
8059;BME280;75058;42.668;23.396;2024-02-16T10:49:37;95721.03;;;9.29;44.09
8059;BME280;75058;42.668;23.396;2024-02-16T10:52:06;95724.47;;;9.49;43.65
8059;BME280;75058;42.668;23.396;2024-02-16T10:54:37;95718.25;;;9.57;43.90
8059;BME280;75058;42.668;23.396;2024-02-16T10:57:07;95710.00;;;9.60;43.69
8059;BME280;75058;42.668;23.396;2024-02-16T10:59:41;95717.03;;;9.33;43.88
8059;BME280;75058;42.668;23.396;2024-02-16T11:02:11;95710.38;;;9.04;44.67
8059;BME280;75058;42.668;23.396;2024-02-16T11:04:39;95717.44;;;9.37;44.03
8059;BME280;75058;42.668;23.396;2024-02-16T11:07:12;95716.22;;;9.13;44.46
8059;BME280;75058;42.668;23.396;2024-02-16T11:09:42;95710.59;;;9.42;43.99
8059;BME280;75058;42.668;23.396;2024-02-16T11:12:12;95699.94;;;9.76;43.50
8059;BME280;75058;42.668;23.396;2024-02-16T11:14:43;95701.38;;;9.59;43.56
8059;BME280;75058;42.668;23.396;2024-02-16T11:17:12;95697.72;;;9.60;43.87
8059;BME280;75058;42.668;23.396;2024-02-16T11:19:41;95695.91;;;9.93;43.30
8059;BME280;75058;42.668;23.396;2024-02-16T11:22:10;95692.47;;;10.19;42.30
8059;BME280;75058;42.668;23.396;2024-02-16T11:24:45;95685.59;;;10.75;41.45
8059;BME280;75058;42.668;23.396;2024-02-16T11:27:14;95681.38;;;10.30;42.23
8059;BME280;75058;42.668;23.396;2024-02-16T11:29:47;95681.75;;;10.78;41.08
8059;BME280;75058;42.668;23.396;2024-02-16T11:32:17;95684.56;;;11.14;39.86
8059;BME280;75058;42.668;23.396;2024-02-16T11:34:46;95684.31;;;10.84;40.10
8059;BME280;75058;42.668;23.396;2024-02-16T11:37:15;95678.16;;;10.28;41.90
8059;BME280;75058;42.668;23.396;2024-02-16T11:39:45;95674.50;;;10.73;41.34
8059;BME280;75058;42.668;23.396;2024-02-16T11:42:19;95677.22;;;10.98;40.36
8059;BME280;75058;42.668;23.396;2024-02-16T11:44:51;95674.13;;;11.08;40.40
8059;BME280;75058;42.668;23.396;2024-02-16T11:47:20;95678.31;;;11.40;40.48
8059;BME280;75058;42.668;23.396;2024-02-16T11:50:01;95666.75;;;11.23;40.79
8059;BME280;75058;42.668;23.396;2024-02-16T11:52:30;95669.97;;;10.62;41.79
8059;BME280;75058;42.668;23.396;2024-02-16T11:54:59;95663.03;;;10.37;42.28
8059;BME280;75058;42.668;23.396;2024-02-16T11:57:31;95665.91;;;10.22;42.69
8059;BME280;75058;42.668;23.396;2024-02-16T12:00:00;95663.50;;;10.14;42.96
8059;BME280;75058;42.668;23.396;2024-02-16T12:02:30;95606.25;;;10.81;41.69
8059;BME280;75058;42.668;23.396;2024-02-16T12:04:59;95664.81;;;10.80;42.17
8059;BME280;75058;42.668;23.396;2024-02-16T12:07:30;95655.78;;;10.76;42.09
8059;BME280;75058;42.668;23.396;2024-02-16T12:10:02;95654.59;;;11.04;41.93
8059;BME280;75058;42.668;23.396;2024-02-16T12:12:32;95657.50;;;11.27;41.59
8059;BME280;75058;42.668;23.396;2024-02-16T12:15:00;95648.66;;;10.90;41.95
8059;BME280;75058;42.668;23.396;2024-02-16T12:17:29;95646.91;;;10.84;41.46
8059;BME280;75058;42.668;23.396;2024-02-16T12:19:57;95646.72;;;11.59;40.05
8059;BME280;75058;42.668;23.396;2024-02-16T12:22:25;95645.25;;;11.45;39.25
8059;BME280;75058;42.668;23.396;2024-02-16T12:24:53;95650.03;;;11.24;39.79
8059;BME280;75058;42.668;23.396;2024-02-16T12:27:22;95643.19;;;10.67;41.98
8059;BME280;75058;42.668;23.396;2024-02-16T12:29:50;95638.94;;;10.97;41.38
8059;BME280;75058;42.668;23.396;2024-02-16T12:32:19;95639.63;;;10.48;41.71
8059;BME280;75058;42.668;23.396;2024-02-16T12:34:47;95645.59;;;10.18;42.85
8059;BME280;75058;42.668;23.396;2024-02-16T12:37:15;95634.41;;;10.42;42.25
8059;BME280;75058;42.668;23.396;2024-02-16T12:39:44;95639.88;;;10.40;42.20
8059;BME280;75058;42.668;23.396;2024-02-16T12:42:14;95636.16;;;10.17;42.83
8059;BME280;75058;42.668;23.396;2024-02-16T12:44:44;95628.50;;;10.22;42.91
8059;BME280;75058;42.668;23.396;2024-02-16T12:47:12;95635.91;;;10.25;42.57
8059;BME280;75058;42.668;23.396;2024-02-16T12:49:43;95638.38;;;10.13;42.94
8059;BME280;75058;42.668;23.396;2024-02-16T12:52:20;95622.81;;;10.25;42.56
8059;BME280;75058;42.668;23.396;2024-02-16T12:54:49;95629.00;;;10.43;42.53
8059;BME280;75058;42.668;23.396;2024-02-16T12:57:17;95632.06;;;10.27;43.31
8059;BME280;75058;42.668;23.396;2024-02-16T12:59:47;95623.06;;;10.61;42.57
8059;BME280;75058;42.668;23.396;2024-02-16T13:02:15;95627.69;;;10.59;42.18
8059;BME280;75058;42.668;23.396;2024-02-16T13:04:43;95627.53;;;10.54;42.67
8059;BME280;75058;42.668;23.396;2024-02-16T13:07:12;95623.47;;;10.64;42.37
8059;BME280;75058;42.668;23.396;2024-02-16T13:09:40;95625.63;;;11.05;41.69
8059;BME280;75058;42.668;23.396;2024-02-16T13:12:09;95625.03;;;11.03;41.05
8059;BME280;75058;42.668;23.396;2024-02-16T13:14:37;95621.09;;;11.12;41.18
8059;BME280;75058;42.668;23.396;2024-02-16T13:17:06;95620.56;;;11.04;42.27